createdAt,value
2022-08-28T00:00:14.107Z,45.5
2022-08-28T00:02:11.614Z,47.9
2022-08-28T00:04:11.822Z,45.3
2022-08-28T00:06:12.442Z,44.8
2022-08-28T00:08:12.035Z,45.0
2022-08-28T00:10:13.984Z,43.3
2022-08-28T00:12:12.763Z,45.2
2022-08-28T00:14:13.523Z,43.2
2022-08-28T00:16:11.706Z,46.3
2022-08-28T00:18:13.642Z,47.9
2022-08-28T00:20:14.515Z,47.4
2022-08-28T00:22:12.201Z,48.5
2022-08-28T00:24:11.708Z,48.1
2022-08-28T00:26:11.694Z,46.5
2022-08-28T00:28:18.423Z,46.6
2022-08-28T00:30:12.757Z,45.6
2022-08-28T00:32:12.198Z,46.9
2022-08-28T00:34:12.304Z,45.7
2022-08-28T00:36:13.136Z,45.8
2022-08-28T00:38:12.153Z,43.1
2022-08-28T00:40:12.503Z,43.2
2022-08-28T00:42:12.249Z,46.5
2022-08-28T00:44:21.437Z,46.9
2022-08-28T00:46:13.023Z,44.6
2022-08-28T00:48:12.197Z,41.4
2022-08-28T00:50:13.780Z,43.3
2022-08-28T00:52:15.981Z,43.6
2022-08-28T00:54:12.627Z,45.6
2022-08-28T00:56:16.530Z,44.7
2022-08-28T00:58:12.469Z,43.7
2022-08-28T01:00:14.294Z,43.8
2022-08-28T01:02:12.210Z,42.6
2022-08-28T01:04:12.465Z,40.1
2022-08-28T01:06:11.824Z,39.7
2022-08-28T01:08:14.331Z,43.0
2022-08-28T01:10:11.993Z,42.7
2022-08-28T01:12:17.181Z,44.9
2022-08-28T01:14:13.777Z,45.2
2022-08-28T01:16:12.987Z,42.6
2022-08-28T01:18:15.615Z,45.4
2022-08-28T01:20:17.147Z,45.4
2022-08-28T01:22:22.750Z,44.8
2022-08-28T01:24:14.740Z,45.2
2022-08-28T01:26:11.906Z,46.8
2022-08-28T01:28:15.768Z,47.1
2022-08-28T01:30:12.276Z,48.6
2022-08-28T01:32:13.026Z,47.1
2022-08-28T01:34:12.760Z,46.0
2022-08-28T01:36:11.834Z,44.6
2022-08-28T01:38:13.121Z,46.3
2022-08-28T01:40:12.741Z,47.0
2022-08-28T01:42:12.629Z,47.3
2022-08-28T01:44:12.277Z,45.9
2022-08-28T01:46:14.890Z,47.0
2022-08-28T01:48:12.363Z,47.8
2022-08-28T01:50:12.175Z,46.5
2022-08-28T01:52:11.711Z,44.9
2022-08-28T01:54:12.262Z,45.3
2022-08-28T01:56:17.138Z,46.1
2022-08-28T01:58:15.239Z,46.2
2022-08-28T02:00:11.660Z,45.4
2022-08-28T02:02:11.620Z,47.0
2022-08-28T02:04:12.059Z,46.7
2022-08-28T02:06:11.639Z,47.2
2022-08-28T02:08:14.604Z,46.5
2022-08-28T02:10:13.878Z,47.0
2022-08-28T02:12:11.753Z,48.0
2022-08-28T02:14:12.810Z,47.9
2022-08-28T02:16:11.776Z,47.6
2022-08-28T02:18:12.687Z,47.0
2022-08-28T02:20:14.902Z,46.2
2022-08-28T02:22:12.396Z,46.9
2022-08-28T02:24:11.736Z,46.8
2022-08-28T02:26:11.644Z,46.4
2022-08-28T02:28:12.469Z,47.3
2022-08-28T02:30:12.805Z,47.1
2022-08-28T02:32:11.904Z,47.5
2022-08-28T02:34:12.739Z,48.4
2022-08-28T02:36:11.620Z,48.5
2022-08-28T02:38:12.388Z,48.1
2022-08-28T02:40:12.950Z,47.6
2022-08-28T02:42:11.613Z,48.7
2022-08-28T02:44:12.038Z,47.5
2022-08-28T02:46:12.189Z,47.2
2022-08-28T02:48:15.972Z,47.8
2022-08-28T02:50:13.115Z,47.3
2022-08-28T02:52:11.673Z,47.1
2022-08-28T02:54:12.681Z,48.7
2022-08-28T02:56:13.441Z,46.6
2022-08-28T02:58:11.836Z,46.6
2022-08-28T03:00:13.467Z,49.8
2022-08-28T03:02:12.846Z,51.1
2022-08-28T03:04:11.681Z,49.9
2022-08-28T03:06:13.410Z,49.3
2022-08-28T03:08:13.609Z,48.8
2022-08-28T03:10:13.159Z,48.4
2022-08-28T03:12:12.211Z,48.8
2022-08-28T03:14:12.234Z,48.1
2022-08-28T03:16:12.503Z,47.2
2022-08-28T03:18:11.693Z,46.8
2022-08-28T03:20:12.017Z,46.8
2022-08-28T03:22:12.364Z,48.6
2022-08-28T03:24:11.824Z,48.9
2022-08-28T03:26:14.526Z,49.6
2022-08-28T03:28:12.618Z,47.4
2022-08-28T03:30:12.819Z,48.4
2022-08-28T03:32:12.700Z,48.3
2022-08-28T03:34:12.635Z,49.0
2022-08-28T03:36:12.473Z,47.8
2022-08-28T03:38:11.799Z,48.8
2022-08-28T03:40:13.121Z,47.4
2022-08-28T03:42:11.627Z,48.2
2022-08-28T03:44:13.339Z,49.9
2022-08-28T03:46:14.635Z,51.4
2022-08-28T03:48:12.021Z,50.6
2022-08-28T03:50:11.773Z,52.5
2022-08-28T03:52:11.635Z,50.7
2022-08-28T03:54:13.189Z,48.6
2022-08-28T03:56:16.220Z,48.2
2022-08-28T03:58:19.001Z,47.7
2022-08-28T04:00:13.907Z,47.5
2022-08-28T04:02:11.598Z,47.2
2022-08-28T04:04:12.491Z,47.4
2022-08-28T04:06:12.261Z,47.1
2022-08-28T04:08:13.342Z,48.7
2022-08-28T04:10:12.542Z,49.2
2022-08-28T04:12:12.804Z,48.4
2022-08-28T04:14:11.627Z,50.7
2022-08-28T04:16:14.978Z,49.8
2022-08-28T04:18:12.674Z,48.7
2022-08-28T04:20:12.607Z,49.1
2022-08-28T04:22:12.173Z,48.5
2022-08-28T04:24:11.840Z,48.1
2022-08-28T04:26:14.384Z,49.5
2022-08-28T04:28:11.928Z,47.9
2022-08-28T04:30:11.693Z,50.1
2022-08-28T04:32:13.282Z,49.9
2022-08-28T04:34:15.328Z,47.6
2022-08-28T04:36:13.774Z,48.9
2022-08-28T04:38:11.590Z,49.3
2022-08-28T04:40:12.749Z,48.5
2022-08-28T04:42:11.635Z,47.8
2022-08-28T04:44:12.982Z,48.5
2022-08-28T04:46:13.924Z,47.5
2022-08-28T04:48:13.449Z,48.2
2022-08-28T04:50:12.175Z,47.8
2022-08-28T04:52:12.111Z,48.2
2022-08-28T04:54:11.868Z,49.5
2022-08-28T04:56:14.160Z,49.2
2022-08-28T04:58:11.815Z,49.7
2022-08-28T05:00:13.402Z,50.0
2022-08-28T05:02:12.757Z,49.2
2022-08-28T05:04:13.127Z,50.2
2022-08-28T05:06:11.652Z,49.6
2022-08-28T05:08:12.272Z,48.0
2022-08-28T05:10:11.608Z,48.3
2022-08-28T05:12:13.655Z,48.1
2022-08-28T05:14:16.091Z,49.1
2022-08-28T05:16:13.607Z,49.2
2022-08-28T05:18:11.819Z,49.3
2022-08-28T05:20:12.016Z,52.4
2022-08-28T05:22:12.517Z,50.6
2022-08-28T05:24:11.706Z,50.6
2022-08-28T05:26:11.589Z,50.6
2022-08-28T05:28:12.302Z,49.8
2022-08-28T05:30:11.668Z,49.6
2022-08-28T05:32:12.190Z,49.2
2022-08-28T05:34:12.981Z,48.8
2022-08-28T05:36:14.506Z,50.1
2022-08-28T05:38:12.369Z,51.5
2022-08-28T05:40:11.808Z,51.3
2022-08-28T05:42:11.612Z,53.0
2022-08-28T05:44:19.093Z,53.9
2022-08-28T05:46:15.297Z,53.9
2022-08-28T05:48:12.028Z,53.6
2022-08-28T05:50:11.606Z,51.4
2022-08-28T05:52:11.737Z,51.6
2022-08-28T05:54:13.174Z,50.9
2022-08-28T05:56:13.118Z,49.3
2022-08-28T05:58:11.970Z,50.6
2022-08-28T06:00:11.838Z,53.1
2022-08-28T06:02:11.604Z,53.0
2022-08-28T06:04:14.785Z,51.5
2022-08-28T06:06:12.643Z,49.6
2022-08-28T06:08:11.916Z,50.3
2022-08-28T06:10:13.335Z,51.8
2022-08-28T06:12:11.696Z,49.7
2022-08-28T06:14:13.398Z,50.0
2022-08-28T06:16:11.809Z,49.8
2022-08-28T06:18:11.883Z,50.3
2022-08-28T06:20:13.390Z,50.9
2022-08-28T06:22:14.074Z,51.2
2022-08-28T06:24:11.669Z,50.8
2022-08-28T06:26:14.483Z,50.1
2022-08-28T06:28:11.819Z,49.9
2022-08-28T06:30:12.213Z,49.5
2022-08-28T06:32:13.426Z,50.0
2022-08-28T06:34:11.778Z,50.1
2022-08-28T06:36:14.328Z,50.9
2022-08-28T06:38:11.579Z,50.2
2022-08-28T06:40:11.771Z,49.6
2022-08-28T06:42:12.139Z,49.2
2022-08-28T06:44:11.965Z,49.1
2022-08-28T06:46:11.880Z,48.9
2022-08-28T06:48:12.041Z,49.0
2022-08-28T06:50:11.596Z,50.1
2022-08-28T06:52:11.715Z,49.6
2022-08-28T06:54:12.703Z,49.9
2022-08-28T06:56:25.737Z,50.0
2022-08-28T06:58:12.464Z,52.2
2022-08-28T07:00:11.844Z,51.4
2022-08-28T07:02:11.704Z,50.3
2022-08-28T07:04:15.945Z,50.5
2022-08-28T07:06:13.643Z,51.8
2022-08-28T07:08:12.206Z,51.4
2022-08-28T07:10:12.337Z,51.2
2022-08-28T07:12:11.651Z,50.8
2022-08-28T07:14:12.101Z,50.6
2022-08-28T07:16:11.739Z,49.2
2022-08-28T07:18:11.844Z,49.8
2022-08-28T07:20:13.022Z,49.8
2022-08-28T07:22:12.250Z,51.0
2022-08-28T07:24:12.672Z,52.8
2022-08-28T07:26:14.150Z,53.5
2022-08-28T07:28:12.336Z,52.3
2022-08-28T07:30:11.602Z,52.3
2022-08-28T07:32:11.957Z,54.2
2022-08-28T07:34:12.135Z,54.3
2022-08-28T07:36:15.995Z,54.5
2022-08-28T07:38:11.680Z,53.2
2022-08-28T07:40:11.699Z,52.6
2022-08-28T07:42:12.191Z,52.0
2022-08-28T07:44:12.060Z,53.1
2022-08-28T07:46:14.629Z,53.3
2022-08-28T07:48:14.499Z,56.6
2022-08-28T07:50:11.597Z,57.0
2022-08-28T07:52:11.942Z,55.2
2022-08-28T07:54:11.695Z,53.2
2022-08-28T07:56:11.863Z,53.4
2022-08-28T07:58:11.597Z,52.7
2022-08-28T08:00:12.609Z,51.9
2022-08-28T08:02:12.192Z,53.4
2022-08-28T08:04:11.667Z,56.8
2022-08-28T08:06:13.924Z,54.9
2022-08-28T08:08:12.116Z,53.2
2022-08-28T08:10:12.169Z,52.9
2022-08-28T08:12:12.367Z,52.7
2022-08-28T08:14:13.212Z,52.7
2022-08-28T08:16:15.194Z,53.0
2022-08-28T08:18:11.688Z,53.7
2022-08-28T08:20:12.039Z,53.9
2022-08-28T08:22:11.714Z,54.3
2022-08-28T08:24:12.511Z,53.6
2022-08-28T08:26:15.006Z,53.3
2022-08-28T08:28:11.798Z,53.9
2022-08-28T08:30:11.651Z,53.6
2022-08-28T08:32:15.325Z,53.9
2022-08-28T08:34:14.066Z,53.1
2022-08-28T08:36:11.727Z,52.8
2022-08-28T08:38:11.580Z,53.0
2022-08-28T08:40:11.635Z,54.4
2022-08-28T08:42:14.625Z,53.6
2022-08-28T08:44:17.068Z,54.3
2022-08-28T08:46:11.631Z,53.6
2022-08-28T08:48:12.773Z,53.5
2022-08-28T08:50:16.311Z,53.3
2022-08-28T08:52:30.652Z,53.3
2022-08-28T08:54:15.655Z,53.6
2022-08-28T08:56:14.123Z,52.2
2022-08-28T08:58:16.022Z,52.0
2022-08-28T09:00:16.081Z,53.6
2022-08-28T09:02:20.102Z,53.0
2022-08-28T09:04:23.777Z,53.4
2022-08-28T09:06:15.160Z,54.2
2022-08-28T09:08:13.637Z,53.9
2022-08-28T09:10:11.628Z,54.0
2022-08-28T09:12:13.633Z,53.4
2022-08-28T09:14:20.637Z,53.3
2022-08-28T09:16:23.153Z,53.9
2022-08-28T09:18:19.347Z,53.3
2022-08-28T09:20:14.656Z,53.4
2022-08-28T09:22:13.102Z,52.1
2022-08-28T09:24:23.524Z,52.4
2022-08-28T09:26:14.393Z,52.5
2022-08-28T09:28:18.236Z,51.6
2022-08-28T09:30:15.289Z,53.0
2022-08-28T09:32:30.716Z,52.9
2022-08-28T09:34:32.584Z,54.2
2022-08-28T09:36:30.676Z,53.6
2022-08-28T09:38:27.758Z,53.5
2022-08-28T09:40:30.685Z,53.3
2022-08-28T09:42:15.770Z,53.8
2022-08-28T09:44:12.670Z,53.8
2022-08-28T09:46:15.627Z,54.6
2022-08-28T09:48:12.665Z,55.2
2022-08-28T09:50:27.566Z,55.0
2022-08-28T09:52:27.639Z,55.0
2022-08-28T09:54:21.071Z,53.9
2022-08-28T09:56:22.809Z,55.6
2022-08-28T09:58:15.581Z,54.9
2022-08-28T10:00:11.839Z,55.5
2022-08-28T10:02:20.423Z,55.2
2022-08-28T10:04:24.161Z,54.6
2022-08-28T10:06:19.065Z,54.8
2022-08-28T10:08:17.939Z,53.9
2022-08-28T10:10:26.439Z,55.3
2022-08-28T10:12:22.648Z,53.7
2022-08-28T10:14:24.053Z,53.7
2022-08-28T10:16:30.663Z,53.0
2022-08-28T10:18:28.693Z,52.8
2022-08-28T10:20:19.241Z,52.4
2022-08-28T10:22:23.383Z,53.5
2022-08-28T10:24:30.700Z,54.5
2022-08-28T10:26:26.344Z,55.4
2022-08-28T10:28:28.397Z,54.4
2022-08-28T10:30:16.664Z,53.4
2022-08-28T10:32:27.397Z,54.6
2022-08-28T10:34:21.612Z,53.9
2022-08-28T10:36:33.292Z,54.8
2022-08-28T10:38:19.202Z,53.4
2022-08-28T10:40:18.242Z,52.9
2022-08-28T10:42:14.446Z,54.1
2022-08-28T10:44:14.672Z,52.6
2022-08-28T10:46:18.890Z,52.8
2022-08-28T10:48:18.581Z,52.8
2022-08-28T10:50:19.601Z,52.7
2022-08-28T10:52:16.649Z,53.4
2022-08-28T10:54:16.548Z,53.5
2022-08-28T10:56:16.352Z,54.6
2022-08-28T10:58:24.925Z,54.0
2022-08-28T11:00:15.863Z,54.0
2022-08-28T11:02:15.809Z,53.5
2022-08-28T11:04:23.533Z,53.5
2022-08-28T11:06:20.172Z,53.4
2022-08-28T11:08:15.391Z,52.5
2022-08-28T11:10:30.255Z,53.7
2022-08-28T11:12:14.007Z,53.1
2022-08-28T11:14:11.845Z,54.0
2022-08-28T11:16:21.453Z,55.0
2022-08-28T11:18:29.927Z,55.0
2022-08-28T11:20:23.395Z,54.1
2022-08-28T11:22:19.262Z,53.4
2022-08-28T11:24:18.191Z,54.1
2022-08-28T11:26:17.410Z,52.7
2022-08-28T11:28:30.656Z,52.8
2022-08-28T11:30:30.741Z,52.2
2022-08-28T11:32:30.693Z,54.3
2022-08-28T11:34:12.505Z,55.8
2022-08-28T11:36:12.995Z,55.3
2022-08-28T11:38:11.599Z,55.4
2022-08-28T11:40:26.451Z,55.2
2022-08-28T11:42:30.682Z,54.8
2022-08-28T11:44:30.668Z,55.3
2022-08-28T11:46:24.010Z,56.0
2022-08-28T11:48:11.656Z,55.1
2022-08-28T11:50:21.240Z,55.5
2022-08-28T11:52:27.506Z,54.5
2022-08-28T11:54:28.593Z,53.7
2022-08-28T11:56:31.818Z,54.2
2022-08-28T11:58:21.233Z,54.8
2022-08-28T12:00:17.305Z,55.5
2022-08-28T12:02:30.734Z,54.7
2022-08-28T12:04:14.444Z,55.8
2022-08-28T12:06:12.724Z,55.2
2022-08-28T12:08:13.597Z,54.4
2022-08-28T12:10:12.307Z,54.6
2022-08-28T12:12:21.140Z,54.8
2022-08-28T12:14:12.183Z,54.9
2022-08-28T12:16:16.382Z,53.8
2022-08-28T12:18:14.833Z,54.3
2022-08-28T12:20:19.843Z,54.6
2022-08-28T12:22:14.506Z,54.3
2022-08-28T12:24:14.670Z,54.7
2022-08-28T12:26:14.764Z,54.8
2022-08-28T12:28:19.882Z,54.2
2022-08-28T12:30:13.456Z,54.3
2022-08-28T12:32:29.633Z,54.0
2022-08-28T12:34:18.071Z,54.7
2022-08-28T12:36:15.144Z,54.9
2022-08-28T12:38:13.957Z,54.3
2022-08-28T12:40:18.165Z,53.6
2022-08-28T12:42:12.915Z,53.4
2022-08-28T12:44:11.825Z,53.2
2022-08-28T12:46:19.379Z,53.1
2022-08-28T12:48:19.135Z,52.9
2022-08-28T12:50:30.659Z,54.2
2022-08-28T12:52:23.755Z,54.4
2022-08-28T12:54:14.350Z,55.0
2022-08-28T12:56:11.893Z,54.2
2022-08-28T12:58:12.921Z,55.2
2022-08-28T13:00:19.362Z,53.6
2022-08-28T13:02:14.166Z,54.3
2022-08-28T13:04:16.501Z,55.7
2022-08-28T13:06:15.627Z,54.1
2022-08-28T13:08:16.209Z,53.7
2022-08-28T13:10:28.095Z,52.7
2022-08-28T13:12:12.064Z,51.9
2022-08-28T13:14:11.777Z,53.4
2022-08-28T13:16:15.075Z,53.8
2022-08-28T13:18:11.643Z,52.9
2022-08-28T13:20:13.504Z,52.3
2022-08-28T13:22:13.810Z,54.9
2022-08-28T13:24:30.694Z,54.7
2022-08-28T13:26:14.854Z,54.4
2022-08-28T13:28:21.284Z,53.1
2022-08-28T13:30:18.017Z,55.4
2022-08-28T13:32:14.131Z,56.8
2022-08-28T13:34:12.558Z,56.3
2022-08-28T13:36:29.795Z,55.1
2022-08-28T13:38:13.246Z,56.4
2022-08-28T13:40:25.658Z,55.2
2022-08-28T13:42:17.856Z,58.1
2022-08-28T13:44:11.927Z,57.9
2022-08-28T13:46:11.706Z,59.5
2022-08-28T13:48:11.667Z,63.6
2022-08-28T13:50:11.627Z,60.2
2022-08-28T13:52:16.086Z,58.4
2022-08-28T13:54:11.620Z,59.0
2022-08-28T13:56:11.682Z,60.6
2022-08-28T13:58:11.607Z,57.1
2022-08-28T14:00:12.471Z,56.1
2022-08-28T14:02:14.611Z,54.5
2022-08-28T14:04:12.571Z,53.7
2022-08-28T14:06:13.182Z,54.8
2022-08-28T14:08:11.916Z,54.7
2022-08-28T14:10:11.589Z,54.8
2022-08-28T14:12:13.565Z,53.1
2022-08-28T14:14:11.570Z,52.9
2022-08-28T14:16:13.994Z,52.5
2022-08-28T14:18:11.618Z,54.3
2022-08-28T14:20:11.843Z,56.3
2022-08-28T14:22:11.581Z,61.2
2022-08-28T14:24:13.126Z,57.6
2022-08-28T14:26:14.371Z,54.8
2022-08-28T14:28:12.004Z,53.7
2022-08-28T14:30:12.457Z,55.8
2022-08-28T14:32:12.682Z,53.4
2022-08-28T14:34:12.041Z,52.4
2022-08-28T14:36:11.707Z,52.8
2022-08-28T14:38:11.587Z,52.4
2022-08-28T14:40:13.112Z,52.8
2022-08-28T14:42:13.320Z,52.2
2022-08-28T14:44:13.747Z,51.7
2022-08-28T14:46:11.885Z,52.7
2022-08-28T14:48:11.749Z,51.4
2022-08-28T14:50:11.612Z,51.8
2022-08-28T14:52:12.750Z,52.5
2022-08-28T14:54:13.323Z,51.6
2022-08-28T14:56:11.836Z,52.6
2022-08-28T14:58:11.561Z,52.8
2022-08-28T15:00:16.124Z,53.4
2022-08-28T15:02:12.096Z,52.7
2022-08-28T15:04:13.278Z,53.0
2022-08-28T15:06:13.754Z,52.1
2022-08-28T15:08:15.656Z,52.4
2022-08-28T15:10:11.587Z,52.5
2022-08-28T15:12:11.753Z,52.6
2022-08-28T15:14:12.248Z,51.3
2022-08-28T15:16:16.058Z,52.3
2022-08-28T15:18:11.640Z,51.7
2022-08-28T15:20:13.104Z,51.3
2022-08-28T15:22:12.148Z,51.9
2022-08-28T15:24:13.645Z,51.3
2022-08-28T15:26:15.212Z,53.3
2022-08-28T15:28:12.974Z,53.5
2022-08-28T15:30:11.768Z,53.6
2022-08-28T15:32:11.719Z,56.3
2022-08-28T15:34:14.520Z,55.2
2022-08-28T15:36:11.732Z,53.1
2022-08-28T15:38:11.606Z,53.3
2022-08-28T15:40:13.166Z,52.7
2022-08-28T15:42:11.826Z,53.1
2022-08-28T15:44:14.956Z,51.7
2022-08-28T15:46:20.547Z,56.8
2022-08-28T15:48:11.665Z,56.8
2022-08-28T15:50:11.622Z,53.7
2022-08-28T15:52:13.180Z,51.3
2022-08-28T15:54:11.617Z,51.1
2022-08-28T15:56:11.691Z,50.7
2022-08-28T15:58:14.182Z,50.2
2022-08-28T16:00:11.950Z,52.7
2022-08-28T16:02:11.594Z,54.5
2022-08-28T16:04:12.403Z,52.6
2022-08-28T16:06:12.651Z,54.4
2022-08-28T16:08:12.014Z,55.3
2022-08-28T16:10:12.103Z,57.3
2022-08-28T16:12:11.633Z,59.8
2022-08-28T16:14:11.836Z,55.3
2022-08-28T16:16:11.895Z,54.8
2022-08-28T16:18:11.620Z,54.3
2022-08-28T16:20:13.597Z,52.6
2022-08-28T16:22:12.790Z,51.2
2022-08-28T16:24:11.685Z,51.9
2022-08-28T16:26:13.231Z,52.6
2022-08-28T16:28:13.767Z,51.7
2022-08-28T16:32:12.591Z,54.1
2022-08-28T16:34:12.441Z,56.0
2022-08-28T16:35:54.996Z,53.0
2022-08-28T16:36:15.584Z,53.1
2022-08-28T16:38:11.615Z,52.4
2022-08-28T16:40:11.930Z,51.3
2022-08-28T16:42:12.182Z,50.0
2022-08-28T16:44:11.963Z,49.6
2022-08-28T16:46:11.610Z,48.1
2022-08-28T16:48:12.621Z,48.0
2022-08-28T16:50:18.826Z,48.5
2022-08-28T16:52:12.054Z,48.1
2022-08-28T16:54:11.587Z,51.0
2022-08-28T16:56:13.173Z,51.8
2022-08-28T16:58:16.343Z,48.3
2022-08-28T17:00:11.875Z,48.5
2022-08-28T17:02:13.235Z,48.4
2022-08-28T17:04:12.014Z,47.3
2022-08-28T17:06:16.592Z,48.2
2022-08-28T17:08:12.400Z,46.6
2022-08-28T17:10:13.239Z,47.9
2022-08-28T17:12:11.739Z,46.1
2022-08-28T17:14:12.499Z,48.0
2022-08-28T17:16:12.303Z,47.8
2022-08-28T17:18:12.340Z,49.5
2022-08-28T17:20:14.057Z,53.3
2022-08-28T17:22:11.589Z,48.8
2022-08-28T17:24:11.887Z,49.5
2022-08-28T17:26:12.984Z,48.8
2022-08-28T17:28:13.862Z,47.9
2022-08-28T17:30:13.524Z,46.9
2022-08-28T17:32:12.655Z,47.8
2022-08-28T17:34:12.200Z,46.3
2022-08-28T17:36:21.338Z,45.8
2022-08-28T17:38:12.696Z,46.4
2022-08-28T17:40:12.137Z,45.6
2022-08-28T17:42:12.314Z,43.8
2022-08-28T17:44:13.038Z,44.2
2022-08-28T17:46:12.728Z,48.4
2022-08-28T17:48:12.568Z,46.9
2022-08-28T17:50:12.194Z,44.3
2022-08-28T17:52:12.434Z,47.4
2022-08-28T17:54:11.623Z,45.9
2022-08-28T17:56:14.764Z,44.3
2022-08-28T17:58:11.622Z,44.2
2022-08-28T18:00:14.851Z,43.8
2022-08-28T18:02:12.159Z,45.3
2022-08-28T18:04:11.980Z,44.3
2022-08-28T18:06:12.198Z,42.5
2022-08-28T18:08:11.796Z,42.4
2022-08-28T18:10:12.392Z,42.9
2022-08-28T18:12:12.595Z,42.4
2022-08-28T18:14:12.282Z,43.7
2022-08-28T18:16:12.603Z,43.6
2022-08-28T18:18:12.383Z,43.8
2022-08-28T18:20:12.848Z,46.8
2022-08-28T18:22:11.598Z,45.9
2022-08-28T18:24:11.865Z,43.3
2022-08-28T18:26:12.204Z,41.5
2022-08-28T18:28:13.657Z,42.4
2022-08-28T18:30:13.056Z,42.1
2022-08-28T18:32:11.891Z,43.6
2022-08-28T18:34:12.591Z,41.1
2022-08-28T18:36:11.692Z,40.6
2022-08-28T18:38:11.647Z,41.6
2022-08-28T18:40:11.956Z,39.3
2022-08-28T18:42:11.636Z,40.5
2022-08-28T18:44:11.920Z,41.1
2022-08-28T18:46:13.686Z,40.9
2022-08-28T18:48:13.246Z,40.5
2022-08-28T18:50:13.188Z,40.5
2022-08-28T18:52:11.900Z,43.4
2022-08-28T18:54:12.209Z,41.9
2022-08-28T18:56:13.279Z,40.4
2022-08-28T18:58:13.270Z,40.0
2022-08-28T19:00:13.632Z,42.4
2022-08-28T19:02:11.682Z,42.4
2022-08-28T19:04:12.039Z,41.0
2022-08-28T19:06:12.450Z,41.1
2022-08-28T19:08:12.409Z,42.1
2022-08-28T19:10:32.151Z,43.1
2022-08-28T19:12:11.755Z,42.4
2022-08-28T19:14:12.223Z,41.2
2022-08-28T19:16:11.918Z,41.1
2022-08-28T19:18:13.075Z,38.6
2022-08-28T19:20:12.603Z,38.3
2022-08-28T19:22:12.325Z,38.9
2022-08-28T19:24:12.576Z,37.3
2022-08-28T19:26:12.450Z,37.2
2022-08-28T19:28:11.927Z,38.9
2022-08-28T19:30:12.352Z,39.5
2022-08-28T19:32:12.664Z,38.5
2022-08-28T19:34:12.128Z,38.5
2022-08-28T19:36:11.770Z,39.0
2022-08-28T19:38:12.189Z,38.9
2022-08-28T19:40:12.089Z,38.0
2022-08-28T19:42:11.640Z,37.2
2022-08-28T19:44:12.250Z,37.3
2022-08-28T19:46:19.233Z,36.5
2022-08-28T19:48:11.740Z,37.8
2022-08-28T19:50:12.366Z,36.8
2022-08-28T19:52:11.891Z,37.7
2022-08-28T19:54:12.242Z,37.9
2022-08-28T19:56:13.948Z,35.8
2022-08-28T19:58:11.567Z,37.0
2022-08-28T20:00:11.874Z,34.7
2022-08-28T20:02:12.800Z,33.4
2022-08-28T20:04:12.322Z,34.9
2022-08-28T20:06:11.601Z,35.2
2022-08-28T20:08:13.429Z,35.8
2022-08-28T20:10:11.776Z,34.8
2022-08-28T20:12:12.278Z,31.8
2022-08-28T20:14:14.117Z,32.1
2022-08-28T20:16:14.460Z,29.6
2022-08-28T20:18:12.352Z,31.7
2022-08-28T20:20:13.875Z,31.4
2022-08-28T20:22:12.173Z,31.6
2022-08-28T20:24:12.016Z,32.0
2022-08-28T20:26:12.167Z,30.5
2022-08-28T20:28:13.482Z,30.5
2022-08-28T20:30:12.798Z,30.5
2022-08-28T20:32:13.620Z,30.5
2022-08-28T20:34:12.123Z,30.5
2022-08-28T20:36:21.324Z,32.4
2022-08-28T20:38:12.158Z,30.6
2022-08-28T20:40:11.991Z,29.7
2022-08-28T20:42:11.599Z,29.6
2022-08-28T20:44:12.872Z,31.9
2022-08-28T20:46:12.279Z,30.6
2022-08-28T20:48:11.791Z,29.7
2022-08-28T20:50:11.603Z,30.4
2022-08-28T20:52:13.147Z,32.0
2022-08-28T20:54:11.613Z,30.8
2022-08-28T20:56:15.267Z,31.6
2022-08-28T20:58:11.696Z,31.6
2022-08-28T21:00:14.046Z,30.4
2022-08-28T21:02:11.810Z,29.6
2022-08-28T21:04:11.927Z,29.9
2022-08-28T21:06:11.606Z,30.8
2022-08-28T21:08:12.590Z,28.4
2022-08-28T21:10:12.533Z,27.8
2022-08-28T21:12:12.478Z,29.0
2022-08-28T21:14:11.568Z,30.4
2022-08-28T21:16:12.662Z,30.0
2022-08-28T21:18:13.290Z,30.0
2022-08-28T21:20:15.633Z,28.7
2022-08-28T21:22:12.135Z,31.4
2022-08-28T21:24:12.936Z,32.9
2022-08-28T21:26:11.712Z,31.5
2022-08-28T21:28:11.818Z,31.6
2022-08-28T21:30:11.944Z,30.1
2022-08-28T21:32:11.911Z,28.4
2022-08-28T21:34:12.152Z,26.0
2022-08-28T21:36:11.712Z,26.1
2022-08-28T21:38:12.095Z,27.3
2022-08-28T21:40:13.908Z,26.4
2022-08-28T21:42:12.494Z,26.5
2022-08-28T21:44:12.959Z,26.8
2022-08-28T21:46:13.596Z,27.8
2022-08-28T21:48:11.728Z,27.3
2022-08-28T21:50:11.569Z,28.7
2022-08-28T21:52:11.985Z,28.8
2022-08-28T21:54:11.654Z,28.4
2022-08-28T21:56:12.740Z,30.4
2022-08-28T21:58:11.647Z,27.7
2022-08-28T22:00:12.035Z,27.5
2022-08-28T22:02:11.637Z,28.6
2022-08-28T22:04:11.999Z,27.8
2022-08-28T22:06:11.591Z,27.8
2022-08-28T22:08:11.907Z,26.9
2022-08-28T22:10:11.634Z,26.5
2022-08-28T22:12:12.626Z,26.5
2022-08-28T22:14:11.649Z,26.3
2022-08-28T22:16:14.119Z,26.6
2022-08-28T22:18:11.611Z,27.7
2022-08-28T22:20:12.035Z,27.5
2022-08-28T22:22:11.600Z,27.5
2022-08-28T22:24:13.108Z,26.3
2022-08-28T22:26:13.787Z,27.2
2022-08-28T22:28:12.838Z,26.9
2022-08-28T22:30:11.678Z,26.3
2022-08-28T22:32:11.934Z,28.7
2022-08-28T22:34:11.661Z,27.0
2022-08-28T22:36:12.359Z,25.8
2022-08-28T22:38:12.366Z,29.2
2022-08-28T22:40:13.920Z,26.9
2022-08-28T22:42:12.171Z,27.6
2022-08-28T22:44:12.038Z,27.7
2022-08-28T22:46:11.976Z,27.4
2022-08-28T22:48:11.718Z,26.8
2022-08-28T22:50:11.994Z,28.0
2022-08-28T22:52:12.029Z,29.5
2022-08-28T22:54:12.252Z,28.9
2022-08-28T22:56:12.782Z,29.1
2022-08-28T22:58:11.770Z,28.4
2022-08-28T23:00:11.805Z,28.4
2022-08-28T23:02:11.699Z,29.0
2022-08-28T23:04:13.490Z,28.5
2022-08-28T23:06:12.290Z,28.8
2022-08-28T23:08:12.818Z,29.0
2022-08-28T23:10:12.702Z,27.5
2022-08-28T23:12:12.924Z,29.4
2022-08-28T23:14:11.661Z,29.8
2022-08-28T23:16:13.087Z,26.5
2022-08-28T23:18:11.607Z,29.6
2022-08-28T23:20:13.161Z,28.6
2022-08-28T23:22:11.618Z,28.3
2022-08-28T23:24:11.631Z,27.8
2022-08-28T23:26:11.589Z,28.1
2022-08-28T23:28:13.245Z,28.9
2022-08-28T23:30:11.652Z,28.6
2022-08-28T23:32:11.801Z,28.9
2022-08-28T23:34:12.482Z,28.0
2022-08-28T23:36:12.498Z,28.7
2022-08-28T23:38:12.760Z,27.3
2022-08-28T23:40:12.224Z,26.6
2022-08-28T23:42:12.177Z,26.9
2022-08-28T23:44:11.883Z,26.9
2022-08-28T23:46:13.515Z,28.9
2022-08-28T23:48:11.668Z,28.6
2022-08-28T23:50:11.592Z,30.4
2022-08-28T23:52:12.867Z,31.1
2022-08-28T23:54:11.628Z,31.1
2022-08-28T23:56:12.836Z,31.4
2022-08-28T23:58:11.599Z,30.4
